createdAt,value
2019-06-10T00:04:22.221Z,9.40
2019-06-10T00:14:31.599Z,9.07
2019-06-10T00:24:42.293Z,8.70
2019-06-10T00:34:55.464Z,13.10
2019-06-10T00:45:07.576Z,10.57
2019-06-10T00:55:14.961Z,10.63
2019-06-10T01:05:24.127Z,7.87
2019-06-10T01:15:35.600Z,10.27
2019-06-10T01:25:51.432Z,12.43
2019-06-10T01:35:57.534Z,18.90
2019-06-10T01:46:11.306Z,26.37
2019-06-10T01:56:21.709Z,18.70
2019-06-10T02:06:31.768Z,18.03
2019-06-10T02:16:41.440Z,11.53
2019-06-10T02:26:51.672Z,18.90
2019-06-10T02:36:57.096Z,16.60
2019-06-10T02:47:09.549Z,12.03
2019-06-10T02:57:29.575Z,15.47
2019-06-10T03:07:35.418Z,11.23
2019-06-10T03:17:45.679Z,16.27
2019-06-10T03:27:56.394Z,13.67
2019-06-10T03:38:16.168Z,13.93
2019-06-10T03:48:28.507Z,12.50
2019-06-10T03:58:44.708Z,16.13
2019-06-10T04:08:59.922Z,16.47
2019-06-10T04:19:06.854Z,18.57
2019-06-10T04:29:13.677Z,12.87
2019-06-10T04:39:33.634Z,12.63
2019-06-10T04:49:37.350Z,13.37
2019-06-10T04:59:42.852Z,14.50
2019-06-10T05:09:47.923Z,18.10
2019-06-10T05:20:02.321Z,18.40
2019-06-10T05:30:12.833Z,13.37
2019-06-10T05:40:26.527Z,9.33
2019-06-10T05:50:42.672Z,6.67
2019-06-10T06:00:53.968Z,7.10
2019-06-10T06:11:12.538Z,5.30
2019-06-10T06:21:30.070Z,8.43
2019-06-10T06:31:36.220Z,8.00
2019-06-10T06:41:42.692Z,6.60
2019-06-10T06:51:56.099Z,3.90
2019-06-10T07:02:02.811Z,5.43
2019-06-10T07:12:12.931Z,5.10
2019-06-10T07:22:23.352Z,3.97
2019-06-10T07:32:25.683Z,3.87
2019-06-10T07:42:34.217Z,4.90
2019-06-10T07:52:48.934Z,4.83
2019-06-10T08:02:58.752Z,4.23
2019-06-10T08:13:05.979Z,7.40
2019-06-10T08:23:24.557Z,2.40
2019-06-10T08:33:33.051Z,3.10
2019-06-10T08:43:34.582Z,3.63
2019-06-10T08:53:37.417Z,2.77
2019-06-10T09:03:43.572Z,5.80
2019-06-10T09:13:48.039Z,7.47
2019-06-10T09:23:59.576Z,4.25
2019-06-10T09:34:03.998Z,5.58
2019-06-10T09:44:12.922Z,6.90
2019-06-10T09:54:15.516Z,6.25
2019-06-10T10:04:17.863Z,3.17
2019-06-10T10:14:33.711Z,5.45
2019-06-10T10:24:44.313Z,6.23
2019-06-10T10:34:57.222Z,6.83
2019-06-10T10:45:16.539Z,5.53
2019-06-10T10:55:33.369Z,5.87
2019-06-10T11:05:40.663Z,5.17
2019-06-10T11:15:54.718Z,6.77
2019-06-10T11:26:06.019Z,13.80
2019-06-10T11:36:13.545Z,6.83
2019-06-10T11:46:21.796Z,4.53
2019-06-10T11:56:34.179Z,6.03
2019-06-10T12:06:45.301Z,8.27
2019-06-10T12:27:07.764Z,7.07
2019-06-10T12:37:18.269Z,9.63
2019-06-10T12:47:33.279Z,13.97
2019-06-10T12:57:47.777Z,11.80
2019-06-10T13:07:57.599Z,12.10
2019-06-10T13:18:18.940Z,10.93
2019-06-10T14:07:02.406Z,16.83
2019-06-10T14:26:06.177Z,13.77
2019-06-10T18:11:42.985Z,12.77
2019-06-10T18:37:17.669Z,8.27
